METAR Data
IDs: Format: Raw Decoded Include TAF

Data at: 1701 UTC 26 Sep 2021

KVRB 261653Z 03012KT 10SM FEW033 SCT044 31/22 A3010 RMK AO2 SLP192 T03060222 $
KVRB 261553Z 02009KT 10SM FEW030 FEW042 31/23 A3010 RMK AO2 SLP192 T03110228 $

KVRB 261127Z 2612/2712 VRB03KT P6SM FEW025 SCT045
  FM261300 03010KT P6SM SCT035
  FM261900 06012KT P6SM FEW035
  FM270000 06006KT P6SM FEW035